createdAt,value
2023-03-04T00:01:53.287Z,100.00
2023-03-04T00:05:55.329Z,100.00
2023-03-04T00:09:57.397Z,100.00
2023-03-04T00:13:59.500Z,100.00
2023-03-04T00:18:01.507Z,100.00
2023-03-04T00:22:04.569Z,100.00
2023-03-04T00:26:09.456Z,100.00
2023-03-04T00:30:12.142Z,100.00
2023-03-04T00:34:14.194Z,100.00
2023-03-04T00:38:16.233Z,100.00
2023-03-04T00:42:18.301Z,100.00
2023-03-04T00:46:20.402Z,100.00
2023-03-04T00:50:22.460Z,100.00
2023-03-04T00:54:24.529Z,100.00
2023-03-04T00:58:26.526Z,100.00
2023-03-04T01:02:28.667Z,100.00
2023-03-04T01:06:30.762Z,100.00
2023-03-04T01:10:33.128Z,100.00
2023-03-04T01:14:35.312Z,100.00
2023-03-04T01:18:37.367Z,100.00
2023-03-04T01:22:39.470Z,100.00
2023-03-04T01:26:41.689Z,99.90
2023-03-04T01:30:43.738Z,99.26
2023-03-04T01:34:45.828Z,98.99
2023-03-04T01:38:47.896Z,98.11
2023-03-04T01:42:49.959Z,97.53
2023-03-04T01:46:55.607Z,96.88
2023-03-04T01:51:03.130Z,95.03
2023-03-04T01:55:18.650Z,95.12
2023-03-04T01:59:26.143Z,94.27
2023-03-04T02:03:28.321Z,94.17
2023-03-04T02:07:30.347Z,93.96
2023-03-04T02:11:33.338Z,93.61
2023-03-04T02:15:35.477Z,93.51
2023-03-04T02:19:50.908Z,92.97
2023-03-04T02:24:15.412Z,91.87
2023-03-04T02:28:17.581Z,92.00
2023-03-04T02:32:20.158Z,91.89
2023-03-04T02:36:23.275Z,91.48
2023-03-04T02:40:30.735Z,91.02
2023-03-04T02:44:37.361Z,91.13
2023-03-04T02:48:39.815Z,90.60
2023-03-04T02:52:41.932Z,90.82
2023-03-04T02:56:52.862Z,91.46
2023-03-04T03:00:57.100Z,90.12
2023-03-04T03:05:00.769Z,90.19
2023-03-04T03:09:03.871Z,90.25
2023-03-04T03:13:06.037Z,90.24
2023-03-04T03:17:08.530Z,90.14
2023-03-04T03:21:10.602Z,90.43
2023-03-04T03:25:15.543Z,90.53
2023-03-04T03:29:17.582Z,90.04
2023-03-04T03:33:19.628Z,89.97
2023-03-04T03:37:21.759Z,89.85
2023-03-04T03:41:23.774Z,90.14
2023-03-04T03:45:25.875Z,89.70
2023-03-04T03:49:28.167Z,90.04
2023-03-04T03:53:30.161Z,89.99
2023-03-04T03:57:32.144Z,90.14
2023-03-04T04:01:34.215Z,90.16
2023-03-04T04:05:36.253Z,90.18
2023-03-04T04:09:38.252Z,89.90
2023-03-04T04:13:40.265Z,89.75
2023-03-04T04:17:42.261Z,89.78
2023-03-04T04:21:44.409Z,89.17
2023-03-04T04:25:46.515Z,89.07
2023-03-04T04:29:48.492Z,89.32
2023-03-04T04:33:50.506Z,88.86
2023-03-04T04:37:52.485Z,89.49
2023-03-04T04:41:54.503Z,89.08
2023-03-04T04:46:00.298Z,89.67
2023-03-04T04:50:03.218Z,89.20
2023-03-04T04:54:06.277Z,88.71
2023-03-04T04:58:08.228Z,89.06
2023-03-04T05:02:10.253Z,88.77
2023-03-04T05:06:13.116Z,88.35
2023-03-04T05:10:15.595Z,88.77
2023-03-04T05:14:17.716Z,88.79
2023-03-04T05:18:21.540Z,88.57
2023-03-04T05:22:23.556Z,88.52
2023-03-04T05:26:25.561Z,87.80
2023-03-04T05:30:28.081Z,87.81
2023-03-04T05:34:30.075Z,87.62
2023-03-04T05:38:33.083Z,87.69
2023-03-04T05:42:35.077Z,87.29
2023-03-04T05:46:37.118Z,87.82
2023-03-04T05:50:39.226Z,90.08
2023-03-04T05:54:41.222Z,87.90
2023-03-04T05:58:44.404Z,86.38
2023-03-04T06:02:46.763Z,85.66
2023-03-04T06:06:48.816Z,85.51
2023-03-04T06:10:53.740Z,85.45
2023-03-04T06:14:55.736Z,85.13
2023-03-04T06:18:57.923Z,84.88
2023-03-04T06:22:59.939Z,84.83
2023-03-04T06:27:02.093Z,84.77
2023-03-04T06:31:04.276Z,84.36
2023-03-04T06:35:06.779Z,84.26
2023-03-04T06:39:09.417Z,84.03
2023-03-04T06:43:11.424Z,84.24
2023-03-04T06:47:13.447Z,84.07
2023-03-04T06:51:16.121Z,84.11
2023-03-04T06:55:18.190Z,83.83
2023-03-04T06:59:20.194Z,82.29
2023-03-04T07:03:22.419Z,82.48
2023-03-04T07:07:26.314Z,81.78
2023-03-04T07:11:28.302Z,82.19
2023-03-04T07:15:30.774Z,81.97
2023-03-04T07:19:32.838Z,83.58
2023-03-04T07:23:35.472Z,80.71
2023-03-04T07:27:38.680Z,80.95
2023-03-04T07:31:40.776Z,80.20
2023-03-04T07:35:42.897Z,80.17
2023-03-04T07:39:44.975Z,80.26
2023-03-04T07:43:47.521Z,80.27
2023-03-04T07:47:49.790Z,87.85
2023-03-04T07:51:51.748Z,79.65
2023-03-04T07:55:53.738Z,76.86
2023-03-04T07:59:56.208Z,76.59
2023-03-04T08:03:58.765Z,76.67
2023-03-04T08:08:00.837Z,75.86
2023-03-04T08:12:02.939Z,75.78
2023-03-04T08:16:05.518Z,75.95
2023-03-04T08:20:07.980Z,76.61
2023-03-04T08:24:11.564Z,76.43
2023-03-04T08:28:14.354Z,76.13
2023-03-04T08:32:16.540Z,75.77
2023-03-04T08:36:18.972Z,75.42
2023-03-04T08:40:21.164Z,75.28
2023-03-04T08:44:25.729Z,74.69
2023-03-04T08:48:28.745Z,73.70
2023-03-04T08:52:31.030Z,74.31
2023-03-04T08:56:33.103Z,73.72
2023-03-04T09:00:38.053Z,73.30
2023-03-04T09:04:40.163Z,73.55
2023-03-04T09:08:42.861Z,74.28
2023-03-04T09:12:44.931Z,72.93
2023-03-04T09:16:46.941Z,71.86
2023-03-04T09:20:49.451Z,71.70
2023-03-04T09:24:51.563Z,71.43
2023-03-04T09:28:57.082Z,70.38
2023-03-04T09:32:59.043Z,71.07
2023-03-04T09:37:01.173Z,71.00
2023-03-04T09:41:07.069Z,70.16
2023-03-04T09:45:16.156Z,68.94
2023-03-04T09:49:20.748Z,68.82
2023-03-04T09:53:29.413Z,68.62
2023-03-04T09:58:02.944Z,68.39
2023-03-04T10:02:20.893Z,67.25
2023-03-04T10:06:23.244Z,67.38
2023-03-04T10:10:31.368Z,66.85
2023-03-04T10:14:51.206Z,66.56
2023-03-04T10:18:55.930Z,66.65
2023-03-04T10:23:10.895Z,66.18
2023-03-04T10:27:18.136Z,67.06
2023-03-04T10:31:22.876Z,66.60
2023-03-04T10:35:32.059Z,66.10
2023-03-04T10:39:39.929Z,66.29
2023-03-04T10:43:45.228Z,66.45
2023-03-04T10:47:54.361Z,66.17
2023-03-04T10:52:18.838Z,65.17
2023-03-04T10:56:36.306Z,66.64
2023-03-04T11:00:38.659Z,65.85
2023-03-04T11:04:40.850Z,66.33
2023-03-04T11:08:43.316Z,66.05
2023-03-04T11:13:02.878Z,65.05
2023-03-04T11:17:28.860Z,63.57
2023-03-04T11:21:40.042Z,68.87
2023-03-04T11:25:47.665Z,65.29
2023-03-04T11:30:03.504Z,61.53
2023-03-04T11:34:27.279Z,59.64
2023-03-04T11:38:36.565Z,60.49
2023-03-04T11:42:59.791Z,60.17
2023-03-04T11:47:17.890Z,59.71
2023-03-04T11:51:43.136Z,60.08
2023-03-04T11:56:04.278Z,59.04
2023-03-04T12:00:12.409Z,59.64
2023-03-04T12:04:33.674Z,59.08
2023-03-04T12:09:22.395Z,58.49
2023-03-04T12:13:42.374Z,57.32
2023-03-04T12:18:08.739Z,57.59
2023-03-04T12:22:22.329Z,56.09
2023-03-04T12:26:45.659Z,55.30
2023-03-04T12:31:09.704Z,55.21
2023-03-04T12:35:18.446Z,55.64
2023-03-04T12:39:59.923Z,55.73
2023-03-04T12:44:16.928Z,55.02
2023-03-04T12:48:39.716Z,54.76
2023-03-04T12:53:05.754Z,54.84
2023-03-04T12:57:14.563Z,55.14
2023-03-04T13:01:23.662Z,55.56
2023-03-04T13:05:43.755Z,54.91
2023-03-04T13:10:04.428Z,55.50
2023-03-04T13:14:18.130Z,55.43
2023-03-04T13:18:20.068Z,55.79
2023-03-04T13:22:45.010Z,55.24
2023-03-04T13:26:47.233Z,55.53
2023-03-04T13:30:52.304Z,55.11
2023-03-04T13:34:54.518Z,55.16
2023-03-04T13:39:16.018Z,55.48
2023-03-04T13:43:25.441Z,55.81
2023-03-04T13:47:35.107Z,56.15
2023-03-04T13:51:45.925Z,56.85
2023-03-04T13:56:05.590Z,57.24
2023-03-04T14:00:12.411Z,57.17
2023-03-04T14:04:35.619Z,58.22
2023-03-04T14:08:37.638Z,58.92
2023-03-04T14:12:54.129Z,59.53
2023-03-04T14:16:57.829Z,60.46
2023-03-04T14:21:01.335Z,60.78
2023-03-04T14:25:18.703Z,60.93
2023-03-04T14:29:26.688Z,61.43
2023-03-04T14:33:30.338Z,61.80
2023-03-04T14:37:49.680Z,61.97
2023-03-04T14:41:55.636Z,62.11
2023-03-04T14:46:01.244Z,62.87
2023-03-04T14:50:13.318Z,63.34
2023-03-04T14:54:38.137Z,63.76
2023-03-04T14:58:53.534Z,64.21
2023-03-04T15:03:01.807Z,64.14
2023-03-04T15:07:04.188Z,64.19
2023-03-04T15:11:07.551Z,64.34
2023-03-04T15:15:45.134Z,64.90
2023-03-04T15:19:58.486Z,65.29
2023-03-04T15:24:03.583Z,65.95
2023-03-04T15:28:12.451Z,66.49
2023-03-04T15:32:15.241Z,66.62
2023-03-04T15:36:20.226Z,67.16
2023-03-04T15:40:34.314Z,67.79
2023-03-04T15:44:36.305Z,67.85
2023-03-04T15:48:38.265Z,68.33
2023-03-04T15:52:40.631Z,68.89
2023-03-04T15:56:42.869Z,69.59
2023-03-04T16:00:44.857Z,70.14
2023-03-04T16:04:46.994Z,71.10
2023-03-04T16:08:50.993Z,71.93
2023-03-04T16:12:53.996Z,72.52
2023-03-04T16:16:56.020Z,72.75
2023-03-04T16:20:58.988Z,72.54
2023-03-04T16:25:01.008Z,72.77
2023-03-04T16:29:03.284Z,73.18
2023-03-04T16:33:05.357Z,73.61
2023-03-04T16:37:14.878Z,74.43
2023-03-04T16:41:20.241Z,75.63
2023-03-04T16:45:32.481Z,76.56
2023-03-04T16:49:34.548Z,77.80
2023-03-04T16:53:38.866Z,78.09
2023-03-04T16:57:40.866Z,78.74
2023-03-04T17:01:43.620Z,78.95
2023-03-04T17:05:47.644Z,79.43
2023-03-04T17:09:50.439Z,80.04
2023-03-04T17:13:52.448Z,80.75
2023-03-04T17:17:54.462Z,83.50
2023-03-04T17:21:58.020Z,84.53
2023-03-04T17:26:00.185Z,86.07
2023-03-04T17:30:03.718Z,87.03
2023-03-04T17:34:05.788Z,88.07
2023-03-04T17:38:08.311Z,88.93
2023-03-04T17:42:10.471Z,89.20
2023-03-04T17:46:14.685Z,90.24
2023-03-04T17:50:16.957Z,90.49
2023-03-04T17:54:19.422Z,91.15
2023-03-04T17:58:22.324Z,90.94
2023-03-04T18:02:24.377Z,91.34
2023-03-04T18:06:26.398Z,91.39
2023-03-04T18:10:28.405Z,90.95
2023-03-04T18:14:30.430Z,91.50
2023-03-04T18:18:32.455Z,91.22
2023-03-04T18:22:34.452Z,92.08
2023-03-04T18:26:36.558Z,92.11
2023-03-04T18:30:38.576Z,91.59
2023-03-04T18:34:40.600Z,90.92
2023-03-04T18:38:43.078Z,91.34
2023-03-04T18:42:45.217Z,90.60
2023-03-04T18:46:50.455Z,90.46
2023-03-04T18:50:53.822Z,89.90
2023-03-04T18:54:55.835Z,90.51
2023-03-04T18:58:59.254Z,91.06
2023-03-04T19:03:07.216Z,91.74
2023-03-04T19:07:09.225Z,92.32
2023-03-04T19:11:11.189Z,92.38
2023-03-04T19:15:14.189Z,93.34
2023-03-04T19:19:16.202Z,93.24
2023-03-04T19:23:18.749Z,94.35
2023-03-04T19:27:21.033Z,94.23
2023-03-04T19:31:23.137Z,95.13
2023-03-04T19:35:25.332Z,95.44
2023-03-04T19:39:27.397Z,95.68
2023-03-04T19:43:29.397Z,95.86
2023-03-04T19:47:31.455Z,95.94
2023-03-04T19:51:33.535Z,95.95
2023-03-04T19:55:38.712Z,96.97
2023-03-04T19:59:40.705Z,97.33
2023-03-04T20:03:42.727Z,97.06
2023-03-04T20:07:44.784Z,97.50
2023-03-04T20:11:57.692Z,97.44
2023-03-04T20:16:00.732Z,97.64
2023-03-04T20:20:03.579Z,98.23
2023-03-04T20:24:05.766Z,98.81
2023-03-04T20:28:07.766Z,98.98
2023-03-04T20:32:09.963Z,99.93
2023-03-04T20:36:12.051Z,99.90
2023-03-04T20:40:14.167Z,100.00
2023-03-04T20:44:16.146Z,99.58
2023-03-04T20:48:18.163Z,99.43
2023-03-04T20:52:20.131Z,99.57
2023-03-04T20:56:22.812Z,100.00
2023-03-04T21:00:25.343Z,100.00
2023-03-04T21:04:27.608Z,100.00
2023-03-04T21:08:29.696Z,100.00
2023-03-04T21:12:31.707Z,100.00
2023-03-04T21:16:33.700Z,100.00
2023-03-04T21:20:35.688Z,100.00
2023-03-04T21:24:39.398Z,100.00
2023-03-04T21:28:41.879Z,100.00
2023-03-04T21:32:43.955Z,100.00
2023-03-04T21:36:46.160Z,100.00
2023-03-04T21:40:48.281Z,100.00
2023-03-04T21:44:51.658Z,100.00
2023-03-04T21:48:53.880Z,100.00
2023-03-04T21:52:55.861Z,100.00
2023-03-04T21:56:57.991Z,100.00
2023-03-04T22:01:00.098Z,100.00
2023-03-04T22:05:02.185Z,100.00
2023-03-04T22:09:04.416Z,100.00
2023-03-04T22:13:09.378Z,100.00
2023-03-04T22:17:11.583Z,100.00
2023-03-04T22:21:15.969Z,100.00
2023-03-04T22:25:17.979Z,99.52
2023-03-04T22:29:19.984Z,98.94
2023-03-04T22:33:23.175Z,98.79
2023-03-04T22:37:25.211Z,97.95
2023-03-04T22:41:27.270Z,97.89
2023-03-04T22:45:30.723Z,97.68
2023-03-04T22:49:33.258Z,97.79
2023-03-04T22:53:35.952Z,97.75
2023-03-04T22:57:38.179Z,97.78
2023-03-04T23:01:40.634Z,97.79
2023-03-04T23:05:42.653Z,97.70
2023-03-04T23:09:44.710Z,97.61
2023-03-04T23:13:48.407Z,97.61
2023-03-04T23:17:50.883Z,97.45
2023-03-04T23:21:52.904Z,97.37
2023-03-04T23:25:54.881Z,96.68
2023-03-04T23:29:56.885Z,95.33
2023-03-04T23:34:00.074Z,94.30
2023-03-04T23:38:02.084Z,91.17
2023-03-04T23:42:04.264Z,90.73
2023-03-04T23:46:09.085Z,90.29
2023-03-04T23:50:13.665Z,88.80
2023-03-04T23:54:15.756Z,87.57
2023-03-04T23:58:17.745Z,85.57
